Time;durP1;ratioP1;P1;durP2;ratioP2;P2;SDS_P1;SDS_P2;PMS_P1;PMS_P2;Temp;Humidity;BMP_temperature;BMP_pressure;BME280_temperature;BME280_humidity;BME280_pressure;Samples;Min_cycle;Max_cycle;Signal;HPM_P1;HPM_P2
2024/02/15 00:00:17;;;;;;;0.90;0.20;;;11.90;99.90;;;;;;5148336;27;20757;-60
2024/02/15 00:02:44;;;;;;;0.80;0.30;;;11.90;99.90;;;;;;5140817;27;20442;-59
2024/02/15 00:05:14;;;;;;;0.43;0.20;;;11.90;99.90;;;;;;5138900;27;20523;-59
2024/02/15 00:07:41;;;;;;;1.40;0.30;;;11.90;99.90;;;;;;5145847;27;20507;-59
2024/02/15 00:10:09;;;;;;;0.47;0.20;;;11.90;99.90;;;;;;5137854;27;20454;-59
2024/02/15 00:12:36;;;;;;;0.60;0.30;;;11.90;99.90;;;;;;5137474;27;20439;-60
2024/02/15 00:15:04;;;;;;;0.40;0.20;;;11.90;99.90;;;;;;5135501;27;20423;-59
2024/02/15 00:17:32;;;;;;;0.50;0.20;;;11.90;99.90;;;;;;5152006;27;20430;-59
2024/02/15 00:20:00;;;;;;;1.50;0.30;;;11.90;99.90;;;;;;5128450;27;20446;-59
2024/02/15 00:22:28;;;;;;;0.50;0.20;;;11.90;99.90;;;;;;5145618;27;20485;-59
2024/02/15 00:24:55;;;;;;;0.40;0.20;;;11.90;99.90;;;;;;5147698;27;20796;-59
2024/02/15 00:27:22;;;;;;;0.80;0.28;;;11.90;99.90;;;;;;5114880;27;20450;-59
2024/02/15 00:29:48;;;;;;;0.52;0.20;;;11.90;99.90;;;;;;5135363;27;20406;-59
2024/02/15 00:32:15;;;;;;;1.17;0.30;;;11.90;99.90;;;;;;5126640;27;20519;-59
2024/02/15 00:34:42;;;;;;;0.88;0.20;;;11.90;99.90;;;;;;5144914;27;20504;-58
2024/02/15 00:37:09;;;;;;;0.70;0.30;;;11.90;99.90;;;;;;5136243;27;20476;-59
2024/02/15 00:39:38;;;;;;;1.10;0.20;;;11.90;99.90;;;;;;5133671;28;20542;-59
2024/02/15 00:42:08;;;;;;;0.50;0.20;;;11.90;99.90;;;;;;5129862;27;20418;-59
2024/02/15 00:44:35;;;;;;;0.60;0.30;;;11.90;99.90;;;;;;5146765;27;20494;-59
2024/02/15 00:47:02;;;;;;;1.08;0.30;;;11.90;99.90;;;;;;5134482;28;20462;-59
2024/02/15 00:49:29;;;;;;;0.90;0.30;;;11.80;99.90;;;;;;5136796;28;20426;-59
2024/02/15 00:51:56;;;;;;;1.10;0.30;;;11.80;99.90;;;;;;5136771;28;20483;-58
2024/02/15 00:54:23;;;;;;;0.80;0.30;;;11.80;99.90;;;;;;5134721;28;20454;-59
2024/02/15 00:56:52;;;;;;;1.20;0.30;;;11.90;99.90;;;;;;5126743;28;20414;-59
2024/02/15 00:59:19;;;;;;;0.43;0.20;;;11.90;99.90;;;;;;5135198;28;20475;-59
2024/02/15 01:01:47;;;;;;;0.90;0.30;;;11.90;99.90;;;;;;5147418;27;20428;-59
2024/02/15 01:04:14;;;;;;;1.60;0.30;;;11.90;99.90;;;;;;5156029;27;20440;-59
2024/02/15 01:06:42;;;;;;;1.20;0.30;;;11.90;99.90;;;;;;5151781;27;20756;-59
2024/02/15 01:09:09;;;;;;;0.50;0.20;;;11.80;99.90;;;;;;5136012;28;20811;-59
2024/02/15 01:11:37;;;;;;;0.40;0.20;;;11.80;99.90;;;;;;5137919;27;20422;-58
2024/02/15 01:14:06;;;;;;;0.47;0.30;;;11.90;99.90;;;;;;5136807;27;20807;-59
2024/02/15 01:16:35;;;;;;;2.03;0.30;;;11.80;99.90;;;;;;5136769;27;20440;-59
2024/02/15 01:19:02;;;;;;;0.57;0.30;;;11.80;99.90;;;;;;5156095;27;20421;-59
2024/02/15 01:21:29;;;;;;;0.90;0.20;;;11.80;99.90;;;;;;5153834;27;20448;-59
2024/02/15 01:23:56;;;;;;;0.88;0.30;;;11.80;99.90;;;;;;5147160;27;20478;-59
2024/02/15 01:26:25;;;;;;;0.60;0.20;;;11.80;99.90;;;;;;5135942;27;20426;-58
2024/02/15 01:28:52;;;;;;;0.60;0.30;;;11.80;99.90;;;;;;5140037;27;20426;-59
2024/02/15 01:31:20;;;;;;;1.38;0.30;;;11.80;99.90;;;;;;5140267;27;20850;-59
2024/02/15 01:33:47;;;;;;;0.50;0.20;;;11.70;99.90;;;;;;5130822;27;20472;-59
2024/02/15 01:36:16;;;;;;;0.70;0.30;;;11.70;99.90;;;;;;5139771;27;20816;-58
2024/02/15 01:38:43;;;;;;;0.40;0.30;;;11.70;99.90;;;;;;5139420;27;20426;-59
2024/02/15 01:41:10;;;;;;;0.73;0.30;;;11.60;99.90;;;;;;5139326;27;20426;-59
2024/02/15 01:43:37;;;;;;;0.70;0.30;;;11.50;99.90;;;;;;5138788;27;20430;-59
2024/02/15 01:46:09;;;;;;;0.60;0.30;;;11.50;99.90;;;;;;5149813;27;20824;-59
2024/02/15 01:48:39;;;;;;;0.50;0.25;;;11.50;99.90;;;;;;5139092;27;20423;-59
2024/02/15 01:51:07;;;;;;;0.43;0.20;;;11.40;99.90;;;;;;5139064;27;20422;-59
2024/02/15 01:53:34;;;;;;;0.50;0.20;;;11.40;99.90;;;;;;5139405;27;20431;-59
2024/02/15 01:56:02;;;;;;;0.50;0.20;;;11.30;99.90;;;;;;5139346;27;20422;-59
2024/02/15 01:58:32;;;;;;;1.40;0.40;;;11.30;99.90;;;;;;5123660;27;20436;-59
2024/02/15 02:01:01;;;;;;;0.70;0.30;;;11.30;99.90;;;;;;5138981;27;20708;-58
2024/02/15 02:03:28;;;;;;;0.63;0.30;;;11.30;99.90;;;;;;5143208;27;20419;-59
2024/02/15 02:05:58;;;;;;;0.50;0.30;;;11.30;99.90;;;;;;5139297;27;20453;-59
2024/02/15 02:08:25;;;;;;;0.50;0.30;;;11.30;99.90;;;;;;5146665;27;20509;-60
2024/02/15 02:10:53;;;;;;;0.60;0.23;;;11.30;99.90;;;;;;5138524;27;20425;-59
2024/02/15 02:13:20;;;;;;;0.50;0.20;;;11.30;99.90;;;;;;5139239;27;21088;-59
2024/02/15 02:15:47;;;;;;;1.38;0.30;;;11.30;99.90;;;;;;5140039;27;20531;-60
2024/02/15 02:18:14;;;;;;;0.70;0.30;;;11.30;99.90;;;;;;5138252;27;20453;-59
2024/02/15 02:20:41;;;;;;;1.05;0.30;;;11.20;99.90;;;;;;5157999;27;20464;-60
2024/02/15 02:23:15;;;;;;;0.68;0.30;;;11.20;99.90;;;;;;5151184;27;20461;-59
2024/02/15 02:25:45;;;;;;;0.60;0.30;;;11.20;99.90;;;;;;5142644;27;20516;-59
2024/02/15 02:28:14;;;;;;;1.30;0.30;;;11.20;99.90;;;;;;5137442;27;20467;-59
2024/02/15 02:30:45;;;;;;;1.17;0.30;;;11.10;99.90;;;;;;5147855;27;21108;-59
2024/02/15 02:33:18;;;;;;;0.52;0.20;;;11.10;99.90;;;;;;5150573;27;20427;-59
2024/02/15 02:35:45;;;;;;;0.60;0.30;;;11.00;99.90;;;;;;5140925;27;20428;-59
2024/02/15 02:38:14;;;;;;;0.80;0.30;;;10.90;99.90;;;;;;5147865;27;20484;-60
2024/02/15 02:40:42;;;;;;;0.90;0.30;;;10.90;99.90;;;;;;5137740;27;20434;-59
2024/02/15 02:43:09;;;;;;;0.50;0.30;;;10.90;99.90;;;;;;5135673;27;20859;-59
2024/02/15 02:45:36;;;;;;;0.50;0.30;;;10.80;99.90;;;;;;5136278;27;20426;-59
2024/02/15 02:48:03;;;;;;;0.50;0.30;;;10.70;99.90;;;;;;5151379;27;20469;-59
2024/02/15 02:50:30;;;;;;;0.47;0.30;;;10.70;99.90;;;;;;5152129;27;20430;-59
2024/02/15 02:52:57;;;;;;;0.63;0.30;;;10.70;99.90;;;;;;5142232;27;20428;-59
2024/02/15 02:55:27;;;;;;;0.50;0.30;;;10.70;99.90;;;;;;5158260;27;20555;-59
2024/02/15 02:57:55;;;;;;;0.60;0.30;;;10.80;99.90;;;;;;5158496;27;20508;-59
2024/02/15 03:00:23;;;;;;;1.67;0.30;;;10.80;99.90;;;;;;5156886;27;20513;-59
2024/02/15 03:02:50;;;;;;;0.50;0.28;;;10.70;99.90;;;;;;5157931;27;20452;-59
2024/02/15 03:05:16;;;;;;;0.50;0.22;;;10.70;99.90;;;;;;5150577;27;20509;-59
2024/02/15 03:07:44;;;;;;;1.30;0.30;;;10.70;99.90;;;;;;5137540;27;20426;-59
2024/02/15 03:10:13;;;;;;;0.80;0.30;;;10.70;99.90;;;;;;5137341;27;20440;-59
2024/02/15 03:12:40;;;;;;;0.90;0.30;;;10.60;99.90;;;;;;5139771;27;20506;-59
2024/02/15 03:15:11;;;;;;;1.10;0.30;;;10.60;99.90;;;;;;5156773;27;20421;-59
2024/02/15 03:17:38;;;;;;;1.20;0.30;;;10.60;99.90;;;;;;5158430;27;20463;-59
2024/02/15 03:20:11;;;;;;;1.20;0.30;;;10.60;99.90;;;;;;5137669;27;20430;-59
2024/02/15 03:22:38;;;;;;;0.63;0.30;;;10.60;99.90;;;;;;5130940;27;20518;-58
2024/02/15 03:25:07;;;;;;;0.60;0.30;;;10.60;99.90;;;;;;5137194;27;20430;-59
2024/02/15 03:27:35;;;;;;;0.60;0.30;;;10.60;99.90;;;;;;5136931;27;20422;-59
2024/02/15 03:30:03;;;;;;;0.60;0.30;;;10.60;99.90;;;;;;5136810;27;20423;-59
2024/02/15 03:32:32;;;;;;;1.20;0.30;;;10.60;99.90;;;;;;5136793;27;20522;-59
2024/02/15 03:35:00;;;;;;;1.30;0.30;;;10.50;99.90;;;;;;5136510;27;20517;-59
2024/02/15 03:37:27;;;;;;;1.00;0.30;;;10.50;99.90;;;;;;5137409;27;20749;-59
2024/02/15 03:39:54;;;;;;;0.45;0.20;;;10.60;99.90;;;;;;5136424;27;20461;-59
2024/02/15 03:42:21;;;;;;;0.90;0.30;;;10.60;99.90;;;;;;5136672;27;20461;-58
2024/02/15 03:44:48;;;;;;;0.93;0.30;;;10.60;99.90;;;;;;5137242;27;20507;-59
2024/02/15 03:47:15;;;;;;;1.00;0.30;;;10.70;99.90;;;;;;5144932;27;20421;-58
2024/02/15 03:49:43;;;;;;;0.80;0.30;;;10.70;99.90;;;;;;5156807;27;20817;-59
2024/02/15 03:52:11;;;;;;;0.60;0.30;;;10.60;99.90;;;;;;5156775;27;20485;-59
2024/02/15 03:54:38;;;;;;;0.93;0.30;;;10.60;99.90;;;;;;5158067;27;20912;-58
2024/02/15 03:57:06;;;;;;;1.60;0.30;;;10.50;99.90;;;;;;5157243;27;20425;-59
2024/02/15 03:59:34;;;;;;;0.40;0.20;;;10.50;99.90;;;;;;5138696;27;20438;-58
2024/02/15 04:02:02;;;;;;;1.17;0.30;;;10.40;99.90;;;;;;5157553;27;20432;-59
2024/02/15 04:04:30;;;;;;;0.50;0.30;;;10.40;99.90;;;;;;5148039;27;20437;-59
2024/02/15 04:06:58;;;;;;;0.82;0.38;;;10.40;99.90;;;;;;5136096;27;20438;-59
2024/02/15 04:09:25;;;;;;;0.70;0.30;;;10.50;99.90;;;;;;5136029;27;20457;-59
2024/02/15 04:11:52;;;;;;;0.43;0.22;;;10.50;99.90;;;;;;5135862;27;20454;-59
2024/02/15 04:14:20;;;;;;;0.60;0.30;;;10.60;99.90;;;;;;5136011;27;20752;-59
2024/02/15 04:16:47;;;;;;;0.70;0.30;;;10.60;99.90;;;;;;5148557;27;20420;-58
2024/02/15 04:19:14;;;;;;;0.60;0.30;;;10.70;99.90;;;;;;5144516;27;20451;-59
2024/02/15 04:21:44;;;;;;;1.30;0.30;;;10.70;99.90;;;;;;5138001;27;20524;-59
2024/02/15 04:24:12;;;;;;;0.40;0.30;;;10.80;99.90;;;;;;5155324;27;20412;-59
2024/02/15 04:26:39;;;;;;;0.52;0.30;;;10.80;99.90;;;;;;5130289;27;20478;-58
2024/02/15 04:29:08;;;;;;;0.50;0.28;;;10.80;99.90;;;;;;5136120;27;20434;-59
2024/02/15 04:31:38;;;;;;;0.75;0.30;;;10.80;99.90;;;;;;5155752;27;20481;-59
2024/02/15 04:34:05;;;;;;;0.80;0.30;;;10.90;99.90;;;;;;5138339;27;20708;-59
2024/02/15 04:36:34;;;;;;;0.80;0.30;;;10.90;99.90;;;;;;5154853;27;20836;-59
2024/02/15 04:39:02;;;;;;;0.40;0.20;;;10.80;99.90;;;;;;5156401;27;20832;-59
2024/02/15 04:41:30;;;;;;;0.50;0.20;;;10.90;99.90;;;;;;5145897;27;20473;-58
2024/02/15 04:43:58;;;;;;;1.40;0.30;;;10.80;99.90;;;;;;5135204;28;20422;-59
2024/02/15 04:46:25;;;;;;;0.80;0.30;;;10.80;99.90;;;;;;5135609;27;20415;-58
2024/02/15 04:48:52;;;;;;;0.40;0.20;;;10.80;99.90;;;;;;5155057;27;20964;-59
2024/02/15 04:51:19;;;;;;;0.50;0.30;;;10.80;99.90;;;;;;5155610;27;20445;-59
2024/02/15 04:53:48;;;;;;;0.60;0.30;;;10.90;99.90;;;;;;5154981;27;20436;-59
2024/02/15 04:56:16;;;;;;;1.70;0.30;;;10.90;99.90;;;;;;5154529;27;20412;-59
2024/02/15 04:58:47;;;;;;;0.60;0.30;;;10.90;99.90;;;;;;5154670;27;20420;-61
2024/02/15 05:01:15;;;;;;;0.55;0.30;;;11.00;99.90;;;;;;5153100;27;20435;-59
2024/02/15 05:03:42;;;;;;;1.15;0.22;;;11.10;99.90;;;;;;5158051;27;20438;-58
2024/02/15 05:06:10;;;;;;;0.60;0.30;;;11.00;99.90;;;;;;5153764;27;20479;-59
2024/02/15 05:08:38;;;;;;;1.20;0.25;;;11.00;99.90;;;;;;5139103;27;20526;-58
2024/02/15 05:11:06;;;;;;;0.60;0.30;;;11.00;99.90;;;;;;5138203;27;20423;-59
2024/02/15 05:13:33;;;;;;;0.50;0.20;;;11.00;99.90;;;;;;5139153;27;20844;-59
2024/02/15 05:16:01;;;;;;;0.40;0.30;;;11.00;99.90;;;;;;5150153;27;20461;-59
2024/02/15 05:18:30;;;;;;;0.77;0.20;;;11.00;99.90;;;;;;5160131;27;20812;-59
2024/02/15 05:20:58;;;;;;;0.50;0.30;;;11.00;99.90;;;;;;5158099;27;20441;-58
2024/02/15 05:23:25;;;;;;;0.70;0.30;;;11.00;99.90;;;;;;5141054;27;20710;-59
2024/02/15 05:25:54;;;;;;;0.90;0.30;;;11.00;99.90;;;;;;5139355;27;20859;-58
2024/02/15 05:28:26;;;;;;;1.80;0.30;;;11.00;99.90;;;;;;5139682;27;20444;-58
2024/02/15 05:31:11;;;;;;;0.60;0.20;;;11.00;99.90;;;;;;5138480;27;20494;-58
2024/02/15 05:33:42;;;;;;;0.50;0.30;;;11.00;99.90;;;;;;5140341;27;20457;-59
2024/02/15 05:36:10;;;;;;;1.30;0.30;;;11.00;99.90;;;;;;5159640;27;20420;-58
2024/02/15 05:38:37;;;;;;;0.70;0.30;;;11.00;99.90;;;;;;5140284;27;20452;-58
2024/02/15 05:41:04;;;;;;;0.80;0.30;;;11.00;99.90;;;;;;5132951;27;20518;-58
2024/02/15 05:43:36;;;;;;;1.20;0.30;;;10.90;99.90;;;;;;5130059;27;20463;-57
2024/02/15 05:46:03;;;;;;;0.88;0.30;;;11.00;99.90;;;;;;5139125;27;20434;-57
2024/02/15 05:48:31;;;;;;;0.70;0.30;;;10.90;99.90;;;;;;5138792;27;20449;-58
2024/02/15 05:50:59;;;;;;;1.70;0.30;;;10.90;99.90;;;;;;5138480;27;20450;-57
2024/02/15 05:53:26;;;;;;;1.20;0.30;;;10.90;99.90;;;;;;5157044;27;20424;-59
2024/02/15 05:55:53;;;;;;;0.70;0.30;;;11.00;99.90;;;;;;5158135;27;20680;-58
2024/02/15 05:58:20;;;;;;;0.55;0.30;;;11.00;99.90;;;;;;5145596;27;20454;-58
2024/02/15 06:00:47;;;;;;;1.50;0.30;;;11.00;99.90;;;;;;5140516;27;20768;-58
2024/02/15 06:03:14;;;;;;;1.10;0.30;;;11.00;99.90;;;;;;5145456;27;20790;-58
2024/02/15 06:05:42;;;;;;;0.68;0.30;;;11.00;99.90;;;;;;5158356;27;20822;-58
2024/02/15 06:08:12;;;;;;;0.98;0.30;;;11.00;99.90;;;;;;5149753;27;20456;-59
2024/02/15 06:10:39;;;;;;;1.10;0.30;;;10.90;99.90;;;;;;5156922;27;20806;-58
2024/02/15 06:13:06;;;;;;;0.60;0.30;;;10.90;99.90;;;;;;5138405;27;20419;-59
2024/02/15 06:15:33;;;;;;;0.50;0.30;;;10.90;99.90;;;;;;5139267;27;20708;-58
2024/02/15 06:18:00;;;;;;;0.90;0.30;;;10.80;99.90;;;;;;5141892;27;20427;-58
2024/02/15 06:20:29;;;;;;;0.60;0.30;;;10.80;99.90;;;;;;5137376;27;20473;-58
2024/02/15 06:22:58;;;;;;;0.63;0.30;;;10.80;99.90;;;;;;5138080;27;20437;-59
2024/02/15 06:25:25;;;;;;;0.88;0.30;;;10.70;99.90;;;;;;5136969;27;20431;-59
2024/02/15 06:27:58;;;;;;;0.95;0.30;;;10.70;99.90;;;;;;5142537;27;20428;-59
2024/02/15 06:41:36;;;;;;;0.60;0.30;;;10.40;99.90;;;;;;5136643;27;20425;-59
2024/02/15 06:44:02;;;;;;;1.10;0.40;;;10.30;99.90;;;;;;5136312;27;20521;-59
2024/02/15 06:46:29;;;;;;;0.85;0.40;;;10.30;99.90;;;;;;5136143;27;20920;-59
2024/02/15 06:48:58;;;;;;;0.60;0.35;;;10.30;99.90;;;;;;5136117;27;20695;-58
2024/02/15 06:51:24;;;;;;;0.73;0.40;;;10.30;99.90;;;;;;5141178;27;20676;-59
2024/02/15 06:53:55;;;;;;;0.50;0.30;;;10.30;99.90;;;;;;5159535;27;20445;-59
2024/02/15 06:56:22;;;;;;;0.70;0.40;;;10.30;99.90;;;;;;5158994;27;20412;-57
2024/02/15 06:58:50;;;;;;;0.90;0.30;;;10.30;99.90;;;;;;5159059;27;20413;-59
2024/02/15 07:01:17;;;;;;;0.68;0.40;;;10.20;99.90;;;;;;5158866;27;20496;-59
2024/02/15 07:03:45;;;;;;;0.90;0.40;;;10.20;99.90;;;;;;5158483;27;20449;-59
2024/02/15 07:06:13;;;;;;;0.90;0.40;;;10.20;99.90;;;;;;5158032;27;20499;-58
2024/02/15 07:08:40;;;;;;;0.70;0.30;;;10.30;99.90;;;;;;5158921;27;20493;-58
2024/02/15 07:11:09;;;;;;;0.80;0.40;;;10.30;99.90;;;;;;5152121;27;20510;-57
2024/02/15 07:13:37;;;;;;;0.70;0.40;;;10.30;99.90;;;;;;5138166;27;20428;-58
2024/02/15 07:16:08;;;;;;;1.45;0.40;;;10.40;99.90;;;;;;5137223;27;20422;-58
2024/02/15 07:18:35;;;;;;;1.02;0.40;;;10.50;99.90;;;;;;5136401;27;20453;-59
2024/02/15 07:21:03;;;;;;;1.90;0.40;;;10.40;99.90;;;;;;5137310;27;20494;-58
2024/02/15 07:23:30;;;;;;;0.98;0.40;;;10.40;99.90;;;;;;5137714;27;20438;-59
2024/02/15 07:25:57;;;;;;;1.13;0.30;;;10.40;99.90;;;;;;5137233;27;20426;-58
2024/02/15 07:28:26;;;;;;;1.20;0.30;;;10.40;99.90;;;;;;5135165;27;20475;-59
2024/02/15 07:30:54;;;;;;;0.80;0.40;;;10.40;99.90;;;;;;5138048;27;20502;-59
2024/02/15 07:33:22;;;;;;;0.70;0.40;;;10.40;99.90;;;;;;5135766;27;20493;-58
2024/02/15 07:35:50;;;;;;;0.68;0.30;;;10.50;99.90;;;;;;5137440;27;20458;-59
2024/02/15 07:38:17;;;;;;;0.90;0.40;;;10.50;99.90;;;;;;5137378;27;20526;-59
2024/02/15 07:40:45;;;;;;;1.10;0.40;;;10.50;99.90;;;;;;5137604;27;20453;-59
2024/02/15 07:43:11;;;;;;;1.50;0.30;;;10.50;99.90;;;;;;5136749;27;20435;-58
2024/02/15 07:45:40;;;;;;;1.10;0.40;;;10.50;99.90;;;;;;5136925;27;20823;-58
2024/02/15 07:48:07;;;;;;;1.30;0.40;;;10.60;99.90;;;;;;5136455;27;20415;-58
2024/02/15 07:50:37;;;;;;;1.30;0.30;;;10.70;99.90;;;;;;5136327;27;20418;-59
2024/02/15 07:53:06;;;;;;;1.00;0.40;;;10.80;99.90;;;;;;5135735;27;20422;-59
2024/02/15 07:55:33;;;;;;;0.80;0.40;;;10.80;99.90;;;;;;5135438;27;20430;-59
2024/02/15 07:58:01;;;;;;;1.70;0.70;;;10.90;99.90;;;;;;5133361;27;20430;-59
2024/02/15 08:00:29;;;;;;;0.90;0.50;;;11.00;99.90;;;;;;5133938;27;20418;-59
2024/02/15 08:02:59;;;;;;;0.60;0.40;;;11.00;99.90;;;;;;5135382;27;20418;-59
2024/02/15 08:05:26;;;;;;;1.20;0.50;;;11.10;99.90;;;;;;5136132;27;20570;-59
2024/02/15 08:07:57;;;;;;;0.80;0.47;;;11.10;99.90;;;;;;5136266;27;20466;-59
2024/02/15 08:10:24;;;;;;;0.70;0.40;;;11.20;99.90;;;;;;5135988;27;20418;-59
2024/02/15 08:12:52;;;;;;;1.08;0.30;;;11.20;99.90;;;;;;5136914;27;20418;-59
2024/02/15 08:15:19;;;;;;;1.10;0.40;;;11.30;99.90;;;;;;5136816;27;20819;-59
2024/02/15 08:17:47;;;;;;;1.85;0.40;;;11.40;99.90;;;;;;5136225;27;20446;-59
2024/02/15 08:20:21;;;;;;;0.80;0.40;;;11.50;99.90;;;;;;5136048;27;20437;-59
2024/02/15 08:22:48;;;;;;;0.70;0.40;;;11.60;99.90;;;;;;5136136;27;20431;-59
2024/02/15 08:25:15;;;;;;;0.65;0.40;;;11.70;99.90;;;;;;5136949;27;20417;-59
2024/02/15 08:27:44;;;;;;;0.90;0.30;;;11.70;99.90;;;;;;5136423;27;20422;-59
2024/02/15 08:30:12;;;;;;;0.80;0.30;;;11.80;99.90;;;;;;5136950;27;20513;-59
2024/02/15 08:32:41;;;;;;;1.60;0.30;;;11.90;99.90;;;;;;5137120;27;20445;-59
2024/02/15 08:35:09;;;;;;;0.70;0.30;;;12.00;99.90;;;;;;5135243;27;20513;-59
2024/02/15 08:37:38;;;;;;;0.80;0.40;;;12.10;99.90;;;;;;5135877;27;20426;-59
2024/02/15 08:40:10;;;;;;;0.60;0.40;;;12.10;99.90;;;;;;5135848;27;20479;-59
2024/02/15 08:42:38;;;;;;;1.00;0.40;;;12.20;99.90;;;;;;5135816;28;20499;-59
2024/02/15 08:45:08;;;;;;;1.20;0.50;;;12.30;99.90;;;;;;5135412;28;20411;-59
2024/02/15 08:47:37;;;;;;;0.98;0.50;;;12.40;99.90;;;;;;5136213;28;20458;-59
2024/02/15 08:50:05;;;;;;;1.90;0.50;;;12.40;99.90;;;;;;5135157;28;20418;-59
2024/02/15 08:52:32;;;;;;;0.90;0.40;;;12.40;99.90;;;;;;5134429;28;20476;-59
2024/02/15 08:55:00;;;;;;;0.98;0.40;;;12.40;99.90;;;;;;5135272;28;20480;-59
2024/02/15 08:57:27;;;;;;;2.67;0.43;;;12.30;99.90;;;;;;5134094;28;20410;-60
2024/02/15 08:59:54;;;;;;;0.60;0.38;;;12.30;99.90;;;;;;5135645;28;20410;-59
2024/02/15 09:02:21;;;;;;;1.00;0.40;;;12.20;99.90;;;;;;5134824;28;20435;-59
2024/02/15 09:04:48;;;;;;;0.60;0.40;;;12.30;99.90;;;;;;5135212;28;20422;-59
2024/02/15 09:07:15;;;;;;;0.60;0.40;;;12.30;99.90;;;;;;5135338;28;20665;-59
2024/02/15 09:09:42;;;;;;;1.50;0.30;;;12.30;99.90;;;;;;5134555;28;20501;-60
2024/02/15 09:12:11;;;;;;;1.20;0.40;;;12.40;99.90;;;;;;5135601;28;20442;-59
2024/02/15 09:14:39;;;;;;;1.30;0.40;;;12.50;99.90;;;;;;5135862;28;20517;-60
2024/02/15 09:17:07;;;;;;;0.70;0.30;;;12.40;99.90;;;;;;5135937;28;20912;-60
2024/02/15 09:19:34;;;;;;;0.90;0.30;;;12.50;99.90;;;;;;5136196;28;20422;-60
2024/02/15 09:22:01;;;;;;;0.50;0.30;;;12.50;99.90;;;;;;5135422;28;20425;-59
2024/02/15 09:24:33;;;;;;;0.93;0.30;;;12.50;99.90;;;;;;5135582;28;20935;-60
2024/02/15 09:27:01;;;;;;;0.70;0.30;;;12.60;99.90;;;;;;5136079;28;20509;-59
2024/02/15 09:29:32;;;;;;;0.98;0.30;;;12.70;99.90;;;;;;5135655;28;20504;-59
2024/02/15 09:32:01;;;;;;;0.63;0.30;;;12.70;99.90;;;;;;5135457;28;20550;-59
2024/02/15 09:34:29;;;;;;;0.80;0.40;;;12.70;99.90;;;;;;5133264;28;20427;-59
2024/02/15 09:36:56;;;;;;;1.00;0.50;;;12.70;99.90;;;;;;5133201;28;20705;-57
2024/02/15 09:39:24;;;;;;;0.70;0.40;;;12.70;99.90;;;;;;5132044;28;20827;-57
2024/02/15 09:41:58;;;;;;;1.23;0.43;;;12.70;99.90;;;;;;5131967;28;20513;-58
2024/02/15 09:44:27;;;;;;;1.60;0.50;;;12.70;99.90;;;;;;5132951;28;21012;-57
2024/02/15 09:47:04;;;;;;;1.10;0.50;;;12.70;99.90;;;;;;5132408;27;20517;-57
2024/02/15 09:49:35;;;;;;;0.70;0.40;;;12.80;99.90;;;;;;5128824;27;20428;-57
2024/02/15 09:52:04;;;;;;;1.30;0.30;;;12.90;99.90;;;;;;5138331;27;20437;-57
2024/02/15 09:54:32;;;;;;;0.80;0.40;;;13.00;99.90;;;;;;5138243;27;20444;-60
2024/02/15 09:57:03;;;;;;;0.60;0.30;;;13.00;99.90;;;;;;5131924;27;20847;-58
2024/02/15 09:59:31;;;;;;;1.70;0.40;;;13.00;99.90;;;;;;5139106;27;20509;-58
2024/02/15 10:02:00;;;;;;;0.80;0.30;;;13.00;99.90;;;;;;5139890;27;20692;-59
2024/02/15 10:04:27;;;;;;;1.80;0.30;;;13.10;99.90;;;;;;5138429;27;20521;-58
2024/02/15 10:06:56;;;;;;;1.33;0.30;;;13.20;99.90;;;;;;5134460;27;20525;-58
2024/02/15 10:09:30;;;;;;;0.60;0.35;;;13.30;99.90;;;;;;5129594;27;20503;-58
2024/02/15 10:11:58;;;;;;;0.70;0.40;;;13.30;99.90;;;;;;5137693;27;20429;-59
2024/02/15 10:14:25;;;;;;;0.52;0.30;;;13.40;99.90;;;;;;5136420;27;20446;-58
2024/02/15 10:16:53;;;;;;;0.75;0.30;;;13.50;99.90;;;;;;5138184;27;20518;-59
2024/02/15 10:19:24;;;;;;;0.47;0.30;;;13.60;99.90;;;;;;5128154;27;20777;-58
2024/02/15 10:21:55;;;;;;;0.80;0.27;;;13.70;99.90;;;;;;5137674;27;20437;-57
2024/02/15 10:24:24;;;;;;;0.70;0.30;;;13.70;99.90;;;;;;5137729;27;20438;-58
2024/02/15 10:26:51;;;;;;;0.80;0.30;;;13.80;99.90;;;;;;5138422;27;20419;-59
2024/02/15 10:29:20;;;;;;;0.68;0.25;;;13.80;99.90;;;;;;5137032;27;20797;-58
2024/02/15 10:31:54;;;;;;;0.65;0.30;;;13.90;99.90;;;;;;5136045;27;20752;-58
2024/02/15 10:34:22;;;;;;;0.55;0.30;;;13.90;99.90;;;;;;5136985;27;20427;-56
2024/02/15 10:36:49;;;;;;;0.68;0.30;;;14.10;99.90;;;;;;5127458;27;20445;-58
2024/02/15 10:39:19;;;;;;;0.57;0.20;;;14.20;99.90;;;;;;5129713;27;20425;-57
2024/02/15 10:41:50;;;;;;;0.47;0.20;;;14.20;99.90;;;;;;5137003;27;20806;-58
2024/02/15 10:44:21;;;;;;;0.50;0.30;;;14.40;99.90;;;;;;5117967;27;20534;-58
2024/02/15 10:46:51;;;;;;;0.70;0.28;;;14.50;99.90;;;;;;5117835;27;20428;-58
2024/02/15 10:49:20;;;;;;;0.60;0.20;;;14.50;99.90;;;;;;5130877;27;20434;-58
2024/02/15 10:51:53;;;;;;;1.13;0.28;;;14.50;99.90;;;;;;5126701;27;20418;-58
2024/02/15 10:54:33;;;;;;;0.60;0.20;;;14.60;99.90;;;;;;5137443;27;20431;-58
2024/02/15 10:57:05;;;;;;;0.90;0.20;;;14.80;99.90;;;;;;5158198;27;20760;-58
2024/02/15 10:59:37;;;;;;;0.50;0.20;;;15.00;99.90;;;;;;5158163;27;20716;-58
2024/02/15 11:02:24;;;;;;;0.77;0.28;;;15.20;99.90;;;;;;5158886;27;20821;-58
2024/02/15 11:04:56;;;;;;;0.60;0.30;;;15.30;99.90;;;;;;5158368;27;20509;-57
2024/02/15 11:07:27;;;;;;;0.75;0.30;;;15.50;99.90;;;;;;5136140;27;20508;-57
2024/02/15 11:09:55;;;;;;;1.00;0.30;;;15.60;99.90;;;;;;5133644;27;20426;-57
2024/02/15 11:12:23;;;;;;;0.60;0.20;;;15.60;99.90;;;;;;5134652;27;20410;-56
2024/02/15 11:14:51;;;;;;;0.70;0.30;;;15.70;99.90;;;;;;5138161;27;20415;-58
2024/02/15 11:17:48;;;;;;;0.40;0.20;;;15.80;99.90;;;;;;5137768;27;20703;-57
2024/02/15 11:20:48;;;;;;;0.50;0.20;;;15.60;99.90;;;;;;5137173;27;20426;-58
2024/02/15 11:23:26;;;;;;;1.10;0.28;;;15.80;99.90;;;;;;5136821;27;20426;-58
2024/02/15 11:25:53;;;;;;;0.50;0.30;;;16.00;99.90;;;;;;5135615;27;21095;-59
2024/02/15 11:28:38;;;;;;;0.98;0.30;;;16.10;99.90;;;;;;5132905;27;20431;-57
2024/02/15 11:31:08;;;;;;;1.17;0.40;;;16.20;99.90;;;;;;5135515;27;20438;-57
2024/02/15 11:33:36;;;;;;;1.30;0.30;;;16.40;99.90;;;;;;5128347;27;20418;-58
2024/02/15 11:36:05;;;;;;;0.68;0.30;;;16.40;99.90;;;;;;5136100;27;20453;-58
2024/02/15 11:38:34;;;;;;;1.00;0.30;;;16.20;99.90;;;;;;5136598;27;20858;-59
2024/02/15 11:41:06;;;;;;;1.70;0.30;;;16.00;99.90;;;;;;5134017;27;20520;-58
2024/02/15 11:43:59;;;;;;;0.80;0.30;;;16.30;99.90;;;;;;5131705;27;20430;-59
2024/02/15 11:46:30;;;;;;;1.30;0.30;;;16.60;99.90;;;;;;5127974;27;20780;-58
2024/02/15 11:48:58;;;;;;;0.60;0.30;;;16.60;99.90;;;;;;5136080;27;20422;-59
2024/02/15 11:51:27;;;;;;;0.90;0.30;;;16.60;99.90;;;;;;5129500;27;20803;-59
2024/02/15 11:54:06;;;;;;;0.50;0.30;;;16.70;99.90;;;;;;5135838;27;20471;-58
2024/02/15 11:56:51;;;;;;;0.50;0.20;;;16.60;99.90;;;;;;5131645;27;20977;-58
2024/02/15 11:59:29;;;;;;;0.90;0.30;;;16.60;99.90;;;;;;5137330;27;20422;-58
2024/02/15 12:18:44;;;;;;;0.60;0.25;;;16.90;99.90;;;;;;5133037;27;20414;-58
2024/02/15 12:21:17;;;;;;;1.00;0.25;;;16.80;99.90;;;;;;5137325;27;20423;-58
2024/02/15 12:23:45;;;;;;;0.85;0.20;;;17.10;99.90;;;;;;5136736;27;20466;-59
2024/02/15 12:26:14;;;;;;;0.50;0.20;;;17.20;99.90;;;;;;5134399;27;20828;-58
2024/02/15 12:28:43;;;;;;;0.60;0.30;;;17.10;99.90;;;;;;5126806;27;20917;-58
2024/02/15 12:31:13;;;;;;;0.50;0.20;;;17.10;99.90;;;;;;5126077;27;20442;-58
2024/02/15 12:33:40;;;;;;;0.60;0.30;;;17.00;99.90;;;;;;5126334;27;20434;-56
2024/02/15 12:36:08;;;;;;;1.00;0.20;;;17.00;99.90;;;;;;5134227;27;20501;-58
2024/02/15 12:38:37;;;;;;;0.50;0.20;;;17.00;99.90;;;;;;5129087;27;20904;-58
2024/02/15 12:41:17;;;;;;;0.63;0.30;;;16.90;99.90;;;;;;5135714;27;20418;-58
2024/02/15 12:43:46;;;;;;;0.50;0.20;;;16.90;99.90;;;;;;5136262;28;20515;-58
2024/02/15 12:46:13;;;;;;;0.55;0.20;;;17.00;99.90;;;;;;5134727;27;20495;-58
2024/02/15 12:48:40;;;;;;;0.50;0.20;;;17.20;99.90;;;;;;5129355;28;20436;-58
2024/02/15 12:51:15;;;;;;;0.55;0.20;;;17.20;99.90;;;;;;5128701;28;20428;-58
2024/02/15 12:53:42;;;;;;;0.55;0.20;;;17.20;99.90;;;;;;5135046;28;20580;-58
2024/02/15 12:56:10;;;;;;;0.40;0.20;;;17.20;99.90;;;;;;5135722;28;20430;-57
2024/02/15 12:58:39;;;;;;;1.40;0.25;;;17.10;99.90;;;;;;5135394;28;20536;-58
2024/02/15 13:01:09;;;;;;;0.40;0.20;;;17.10;99.90;;;;;;5134356;28;20441;-59
2024/02/15 13:03:37;;;;;;;0.40;0.20;;;17.10;99.90;;;;;;5135555;28;20431;-58
2024/02/15 13:06:05;;;;;;;0.75;0.20;;;17.10;99.90;;;;;;5136337;28;20495;-58
2024/02/15 13:08:32;;;;;;;0.50;0.20;;;17.10;99.90;;;;;;5134997;28;20430;-57
2024/02/15 13:10:59;;;;;;;0.60;0.20;;;17.00;99.90;;;;;;5121203;28;20491;-58
2024/02/15 13:13:27;;;;;;;0.40;0.20;;;16.90;99.90;;;;;;5135214;28;20442;-58
2024/02/15 13:15:54;;;;;;;0.40;0.20;;;17.10;99.90;;;;;;5128046;28;20433;-58
2024/02/15 13:18:23;;;;;;;0.80;0.20;;;17.00;99.90;;;;;;5129382;28;20414;-58
2024/02/15 13:20:52;;;;;;;0.40;0.20;;;17.00;99.90;;;;;;5127173;28;20503;-58
2024/02/15 13:23:22;;;;;;;1.10;0.20;;;16.90;99.90;;;;;;5137202;27;20414;-58